createdAt,value
2022-11-24T00:01:17.908Z,6.40
2022-11-24T00:03:46.775Z,6.40
2022-11-24T00:06:16.060Z,6.40
2022-11-24T00:08:45.058Z,6.30
2022-11-24T00:11:17.498Z,6.30
2022-11-24T00:13:45.119Z,6.30
2022-11-24T00:16:18.360Z,6.20
2022-11-24T00:18:47.668Z,6.20
2022-11-24T00:21:16.256Z,6.20
2022-11-24T00:23:43.875Z,6.20
2022-11-24T00:26:16.523Z,6.20
2022-11-24T00:28:44.875Z,6.20
2022-11-24T00:31:17.494Z,6.10
2022-11-24T00:33:45.398Z,6.10
2022-11-24T00:36:13.020Z,6.10
2022-11-24T00:38:40.199Z,6.00
2022-11-24T00:41:07.257Z,6.00
2022-11-24T00:43:34.445Z,6.00
2022-11-24T00:46:02.048Z,6.00
2022-11-24T00:48:30.010Z,6.00
2022-11-24T00:50:57.552Z,6.00
2022-11-24T00:53:25.397Z,5.90
2022-11-24T00:55:53.035Z,5.90
2022-11-24T00:58:20.139Z,5.90
2022-11-24T01:00:47.185Z,5.90
2022-11-24T01:03:15.263Z,5.90
2022-11-24T01:05:42.404Z,5.90
2022-11-24T01:08:09.851Z,5.90
2022-11-24T01:10:36.900Z,5.80
2022-11-24T01:13:04.931Z,5.80
2022-11-24T01:15:34.819Z,5.80
2022-11-24T01:18:02.302Z,5.80
2022-11-24T01:20:29.287Z,5.80
2022-11-24T01:22:56.287Z,5.80
2022-11-24T01:25:23.263Z,5.80
2022-11-24T01:27:50.287Z,5.80
2022-11-24T01:30:17.578Z,5.80
2022-11-24T01:32:44.614Z,5.80
2022-11-24T01:35:11.578Z,5.80
2022-11-24T01:37:38.568Z,5.80
2022-11-24T01:40:06.259Z,5.80
2022-11-24T01:42:53.586Z,5.80
2022-11-24T01:45:35.103Z,5.80
2022-11-24T01:48:06.500Z,5.70
2022-11-24T01:50:35.619Z,5.60
2022-11-24T01:53:04.016Z,5.60
2022-11-24T01:55:36.593Z,5.60
2022-11-24T01:58:07.539Z,5.60
2022-11-24T02:00:38.163Z,5.60
2022-11-24T02:03:05.473Z,5.50
2022-11-24T02:05:41.494Z,5.50
2022-11-24T02:08:17.122Z,5.60
2022-11-24T02:10:45.532Z,5.60
2022-11-24T02:13:14.375Z,5.50
2022-11-24T02:15:42.150Z,5.50
2022-11-24T02:18:09.436Z,5.50
2022-11-24T02:20:36.659Z,5.60
2022-11-24T02:23:33.607Z,5.60
2022-11-24T02:26:16.018Z,5.60
2022-11-24T02:28:43.134Z,5.60
2022-11-24T02:31:10.675Z,5.50
2022-11-24T02:33:38.826Z,5.50
2022-11-24T02:36:06.235Z,5.40
2022-11-24T02:38:34.644Z,5.40
2022-11-24T02:41:07.454Z,5.30
2022-11-24T02:43:48.471Z,5.30
2022-11-24T02:46:15.514Z,5.30
2022-11-24T02:48:42.603Z,5.20
2022-11-24T02:51:09.733Z,5.30
2022-11-24T02:53:36.820Z,5.30
2022-11-24T02:56:03.943Z,5.30
2022-11-24T02:58:31.004Z,5.40
2022-11-24T03:00:59.794Z,5.40
2022-11-24T03:03:27.661Z,5.40
2022-11-24T03:05:54.663Z,5.30
2022-11-24T03:08:21.935Z,5.30
2022-11-24T03:10:49.314Z,5.20
2022-11-24T03:13:16.381Z,5.20
2022-11-24T03:15:43.394Z,5.20
2022-11-24T03:18:10.440Z,5.10
2022-11-24T03:20:37.559Z,5.10
2022-11-24T03:23:04.594Z,5.20
2022-11-24T03:25:31.611Z,5.20
2022-11-24T03:27:58.586Z,5.10
2022-11-24T03:30:26.391Z,5.10
2022-11-24T03:32:53.859Z,5.10
2022-11-24T03:35:22.115Z,5.00
2022-11-24T03:37:49.592Z,5.00
2022-11-24T03:40:18.139Z,4.90
2022-11-24T03:42:45.394Z,4.90
2022-11-24T03:48:00.346Z,4.80
2022-11-24T03:50:27.697Z,4.80
2022-11-24T03:52:55.038Z,4.80
2022-11-24T03:55:22.102Z,4.80
2022-11-24T03:57:49.220Z,4.90
2022-11-24T04:00:16.787Z,4.90
2022-11-24T04:02:43.810Z,4.90
2022-11-24T04:05:10.846Z,4.90
2022-11-24T04:07:37.885Z,4.90
2022-11-24T04:10:05.485Z,4.90
2022-11-24T04:12:44.648Z,4.80
2022-11-24T04:15:19.498Z,4.80
2022-11-24T04:17:48.274Z,4.80
2022-11-24T04:20:16.254Z,4.80
2022-11-24T04:22:43.737Z,4.70
2022-11-24T04:25:11.437Z,4.70
2022-11-24T04:27:39.080Z,4.70
2022-11-24T04:30:07.420Z,4.70
2022-11-24T04:32:34.413Z,4.70
2022-11-24T04:35:01.367Z,4.60
2022-11-24T04:37:28.490Z,4.60
2022-11-24T04:39:55.526Z,4.60
2022-11-24T04:42:22.553Z,4.60
2022-11-24T04:44:49.524Z,4.60
2022-11-24T04:47:23.828Z,4.60
2022-11-24T04:49:51.167Z,4.60
2022-11-24T04:52:19.619Z,4.60
2022-11-24T04:54:47.614Z,4.60
2022-11-24T04:57:25.486Z,4.60
2022-11-24T04:59:53.795Z,4.50
2022-11-24T05:02:21.336Z,4.50
2022-11-24T05:04:48.761Z,4.50
2022-11-24T05:07:18.980Z,4.60
2022-11-24T05:10:06.095Z,4.60
2022-11-24T05:12:33.645Z,4.70
2022-11-24T05:15:02.021Z,4.70
2022-11-24T05:17:31.472Z,4.70
2022-11-24T05:19:58.817Z,4.70
2022-11-24T05:22:26.997Z,4.80
2022-11-24T05:24:53.934Z,4.80
2022-11-24T05:27:21.362Z,4.80
2022-11-24T05:29:48.355Z,4.80
2022-11-24T05:32:15.493Z,4.80
2022-11-24T05:34:43.340Z,4.70
2022-11-24T05:37:10.376Z,4.70
2022-11-24T05:39:37.670Z,4.70
2022-11-24T05:42:25.131Z,4.80
2022-11-24T05:44:53.104Z,4.70
2022-11-24T05:47:20.723Z,4.60
2022-11-24T05:49:47.727Z,4.60
2022-11-24T05:52:15.054Z,4.50
2022-11-24T05:54:43.063Z,4.50
2022-11-24T05:57:10.340Z,4.50
2022-11-24T05:59:37.430Z,4.50
2022-11-24T06:02:04.647Z,4.40
2022-11-24T06:04:32.260Z,4.40
2022-11-24T06:06:59.522Z,4.50
2022-11-24T06:09:27.382Z,4.40
2022-11-24T06:11:55.145Z,4.40
2022-11-24T06:14:22.482Z,4.40
2022-11-24T06:16:49.463Z,4.40
2022-11-24T06:19:16.431Z,4.40
2022-11-24T06:21:43.397Z,4.40
2022-11-24T06:24:10.415Z,4.50
2022-11-24T06:26:37.357Z,4.50
2022-11-24T06:29:04.311Z,4.50
2022-11-24T06:31:31.364Z,4.60
2022-11-24T06:33:58.851Z,4.70
2022-11-24T06:36:25.858Z,4.70
2022-11-24T06:38:53.519Z,4.70
2022-11-24T06:41:20.586Z,4.80
2022-11-24T06:43:47.977Z,4.80
2022-11-24T06:46:15.765Z,4.90
2022-11-24T06:48:42.695Z,4.90
2022-11-24T06:51:13.034Z,5.00
2022-11-24T06:53:42.345Z,5.00
2022-11-24T06:56:16.119Z,5.00
2022-11-24T06:58:49.451Z,4.90
2022-11-24T07:01:22.751Z,4.90
2022-11-24T07:03:50.150Z,5.00
2022-11-24T07:06:19.367Z,5.00
2022-11-24T07:08:47.208Z,5.10
2022-11-24T07:11:16.810Z,5.20
2022-11-24T07:13:44.947Z,5.30
2022-11-24T07:16:17.368Z,6.20
2022-11-24T07:18:45.739Z,7.60
2022-11-24T07:21:13.089Z,9.10
2022-11-24T07:23:40.461Z,10.30
2022-11-24T07:26:09.089Z,11.20
2022-11-24T07:28:37.239Z,12.20
2022-11-24T07:31:08.703Z,13.10
2022-11-24T07:33:36.166Z,14.00
2022-11-24T07:36:04.119Z,14.80
2022-11-24T07:38:32.317Z,15.40
2022-11-24T07:41:07.464Z,15.90
2022-11-24T07:43:36.130Z,16.70
2022-11-24T07:46:04.362Z,17.50
2022-11-24T07:48:32.072Z,18.30
2022-11-24T07:51:04.312Z,19.00
2022-11-24T07:53:32.093Z,19.50
2022-11-24T07:56:01.159Z,19.80
2022-11-24T07:58:32.734Z,20.10
2022-11-24T08:01:08.246Z,20.50
2022-11-24T08:03:35.947Z,20.80
2022-11-24T08:08:50.111Z,21.00
2022-11-24T08:11:18.171Z,20.90
2022-11-24T08:13:45.564Z,20.70
2022-11-24T08:16:15.188Z,20.60
2022-11-24T08:18:42.976Z,20.60
2022-11-24T08:21:14.737Z,20.50
2022-11-24T08:23:42.896Z,20.20
2022-11-24T08:26:15.926Z,19.60
2022-11-24T08:28:43.409Z,19.00
2022-11-24T08:31:13.618Z,18.80
2022-11-24T08:33:41.231Z,18.50
2022-11-24T08:36:11.376Z,18.20
2022-11-24T08:38:39.053Z,18.10
2022-11-24T08:41:09.098Z,18.00
2022-11-24T08:43:36.501Z,17.80
2022-11-24T08:46:06.382Z,17.60
2022-11-24T08:48:34.313Z,17.50
2022-11-24T08:51:08.536Z,17.60
2022-11-24T08:53:36.188Z,17.80
2022-11-24T08:56:06.175Z,17.80
2022-11-24T08:58:33.761Z,17.90
2022-11-24T09:01:06.424Z,17.90
2022-11-24T09:03:34.616Z,17.90
2022-11-24T09:06:02.467Z,17.80
2022-11-24T09:08:30.756Z,18.10
2022-11-24T09:11:05.508Z,18.50
2022-11-24T09:13:32.980Z,18.80
2022-11-24T09:16:08.250Z,18.80
2022-11-24T09:18:35.696Z,18.80
2022-11-24T09:21:11.610Z,18.80
2022-11-24T09:23:38.995Z,19.20
2022-11-24T09:26:18.137Z,19.40
2022-11-24T09:28:45.947Z,19.50
2022-11-24T09:31:15.774Z,19.70
2022-11-24T09:33:43.525Z,20.10
2022-11-24T09:36:10.530Z,20.60
2022-11-24T09:38:38.049Z,21.00
2022-11-24T09:41:26.547Z,21.60
2022-11-24T09:44:25.482Z,22.30
2022-11-24T09:46:55.108Z,23.10
2022-11-24T09:49:39.203Z,23.50
2022-11-24T09:52:09.914Z,24.30
2022-11-24T09:54:37.755Z,24.80
2022-11-24T09:57:07.370Z,25.20
2022-11-24T09:59:34.538Z,25.60
2022-11-24T10:02:01.779Z,26.10
2022-11-24T10:04:34.043Z,26.50
2022-11-24T10:07:12.772Z,26.80
2022-11-24T10:10:12.927Z,26.70
2022-11-24T10:12:45.896Z,26.60
2022-11-24T10:15:25.754Z,26.70
2022-11-24T10:18:16.468Z,27.20
2022-11-24T10:21:19.553Z,28.00
2022-11-24T10:23:55.488Z,28.70
2022-11-24T10:26:32.201Z,29.50
2022-11-24T10:28:59.048Z,29.80
2022-11-24T10:31:34.931Z,30.00
2022-11-24T10:34:03.720Z,30.00
2022-11-24T10:36:42.852Z,30.10
2022-11-24T10:39:13.558Z,30.20
2022-11-24T10:41:51.811Z,30.00
2022-11-24T10:44:18.878Z,29.80
2022-11-24T10:46:46.082Z,29.60
2022-11-24T10:49:28.218Z,29.50
2022-11-24T10:51:55.026Z,29.30
2022-11-24T10:54:23.001Z,29.20
2022-11-24T10:56:54.149Z,28.80
2022-11-24T10:59:29.580Z,28.30
2022-11-24T11:01:56.911Z,28.00
2022-11-24T11:04:32.827Z,27.80
2022-11-24T11:07:21.499Z,27.80
2022-11-24T11:09:49.429Z,27.90
2022-11-24T11:12:43.516Z,27.80
2022-11-24T11:15:24.738Z,27.40
2022-11-24T11:17:54.553Z,27.00
2022-11-24T11:20:25.874Z,26.60
2022-11-24T11:22:53.677Z,26.60
2022-11-24T11:25:22.419Z,26.80
2022-11-24T11:27:49.473Z,27.00
2022-11-24T11:36:09.123Z,27.40
2022-11-24T11:38:38.116Z,27.60
2022-11-24T11:41:05.901Z,27.70
2022-11-24T11:43:36.014Z,28.10
2022-11-24T11:46:11.745Z,28.20
2022-11-24T11:48:43.497Z,28.30
2022-11-24T11:51:31.076Z,28.50
2022-11-24T11:54:16.710Z,28.70
2022-11-24T11:56:47.253Z,29.00
2022-11-24T11:59:23.113Z,29.20
2022-11-24T12:02:01.943Z,29.20
2022-11-24T12:04:34.890Z,28.90
2022-11-24T12:07:01.858Z,28.60
2022-11-24T12:09:31.636Z,28.50
2022-11-24T12:12:10.812Z,28.30
2022-11-24T12:14:47.072Z,28.30
2022-11-24T12:17:34.803Z,28.30
2022-11-24T12:20:20.214Z,28.40
2022-11-24T12:22:52.754Z,28.20
2022-11-24T12:25:39.840Z,27.80
2022-11-24T12:28:17.638Z,27.60
2022-11-24T12:30:58.241Z,27.50
2022-11-24T12:33:28.154Z,27.40
2022-11-24T12:36:24.306Z,27.40
2022-11-24T12:38:51.253Z,27.30
2022-11-24T12:41:43.711Z,26.80
2022-11-24T12:44:22.647Z,26.60
2022-11-24T12:46:58.773Z,26.70
2022-11-24T12:49:44.412Z,26.80
2022-11-24T12:52:23.255Z,26.80
2022-11-24T12:54:50.053Z,26.60
2022-11-24T12:57:40.130Z,26.40
2022-11-24T13:00:08.337Z,26.20
2022-11-24T13:02:47.170Z,26.20
2022-11-24T13:05:14.139Z,26.00
2022-11-24T13:07:48.544Z,25.80
2022-11-24T13:10:40.413Z,25.60
2022-11-24T13:13:12.267Z,25.60
2022-11-24T13:16:28.557Z,25.40
2022-11-24T13:18:53.384Z,25.20
2022-11-24T13:21:50.279Z,24.90
2022-11-24T13:24:18.023Z,24.70
2022-11-24T13:26:48.650Z,24.40
2022-11-24T13:29:30.506Z,24.00
2022-11-24T13:32:06.261Z,23.80
2022-11-24T13:34:42.922Z,23.70
2022-11-24T13:37:33.912Z,23.60
2022-11-24T13:40:14.177Z,23.50
2022-11-24T13:42:56.486Z,23.70
2022-11-24T13:45:41.950Z,23.90
2022-11-24T13:48:21.920Z,24.20
2022-11-24T13:50:58.439Z,24.40
2022-11-24T13:53:47.629Z,24.60
2022-11-24T13:56:15.098Z,24.60
2022-11-24T13:58:52.976Z,24.50
2022-11-24T14:01:32.706Z,24.30
2022-11-24T14:04:33.722Z,24.00
2022-11-24T14:07:09.487Z,23.60
2022-11-24T14:09:45.592Z,23.20
2022-11-24T14:12:21.243Z,22.80
2022-11-24T14:14:50.002Z,22.40
2022-11-24T14:17:23.228Z,22.00
2022-11-24T14:19:52.978Z,21.60
2022-11-24T14:22:40.146Z,21.20
2022-11-24T14:25:32.764Z,20.80
2022-11-24T14:28:00.896Z,20.20
2022-11-24T14:30:27.906Z,19.50
2022-11-24T14:33:03.349Z,18.70
2022-11-24T14:35:32.985Z,18.00
2022-11-24T14:38:05.833Z,17.30
2022-11-24T14:40:50.460Z,16.60
2022-11-24T14:43:17.339Z,16.00
2022-11-24T14:46:02.745Z,15.40
2022-11-24T14:48:46.893Z,14.90
2022-11-24T14:51:24.924Z,14.50
2022-11-24T14:53:55.510Z,14.10
2022-11-24T14:56:35.817Z,13.80
2022-11-24T14:59:03.838Z,13.60
2022-11-24T15:01:34.503Z,13.30
2022-11-24T15:04:54.563Z,13.10
2022-11-24T15:07:21.759Z,12.80
2022-11-24T15:09:50.774Z,12.60
2022-11-24T15:12:34.524Z,12.40
2022-11-24T15:15:16.238Z,12.10
2022-11-24T15:18:00.078Z,12.00
2022-11-24T15:20:27.214Z,11.80
2022-11-24T15:23:20.692Z,11.60
2022-11-24T15:25:48.341Z,11.40
2022-11-24T15:28:15.333Z,11.30
2022-11-24T15:30:42.524Z,11.20
2022-11-24T15:33:18.392Z,11.20
2022-11-24T15:35:45.979Z,11.00
2022-11-24T15:38:14.017Z,11.00
2022-11-24T15:40:44.027Z,10.90
2022-11-24T15:43:29.560Z,10.80
2022-11-24T15:45:57.052Z,10.70
2022-11-24T15:48:24.106Z,10.60
2022-11-24T15:50:52.295Z,10.60
2022-11-24T15:53:28.114Z,10.50
2022-11-24T15:55:57.119Z,10.40
2022-11-24T15:58:24.395Z,10.40
2022-11-24T16:00:53.597Z,10.30
2022-11-24T16:06:16.724Z,10.20
2022-11-24T16:08:46.764Z,10.10
2022-11-24T16:11:13.969Z,10.00
2022-11-24T16:13:41.057Z,9.90
2022-11-24T16:16:09.611Z,9.90
2022-11-24T16:18:47.370Z,9.80
2022-11-24T16:21:25.969Z,9.70
2022-11-24T16:23:53.937Z,9.70
2022-11-24T16:26:21.353Z,9.60
2022-11-24T16:28:48.658Z,9.60
2022-11-24T16:31:16.356Z,9.60
2022-11-24T16:33:44.904Z,9.60
2022-11-24T16:36:12.860Z,9.60
2022-11-24T16:38:39.897Z,9.50
2022-11-24T16:41:07.381Z,9.50
2022-11-24T16:43:34.325Z,9.50
2022-11-24T16:46:23.097Z,9.50
2022-11-24T16:48:53.096Z,9.50
2022-11-24T16:51:21.733Z,9.40
2022-11-24T16:53:56.158Z,9.40
2022-11-24T16:56:23.079Z,9.30
2022-11-24T16:58:50.044Z,9.20
2022-11-24T17:01:17.026Z,9.20
2022-11-24T17:03:43.998Z,9.10
2022-11-24T17:06:13.330Z,9.00
2022-11-24T17:08:41.273Z,9.00
2022-11-24T17:11:19.713Z,8.90
2022-11-24T17:13:47.579Z,8.80
2022-11-24T17:16:17.261Z,8.70
2022-11-24T17:18:45.419Z,8.70
2022-11-24T17:21:17.849Z,8.70
2022-11-24T17:23:44.908Z,8.60
2022-11-24T17:26:15.245Z,8.50
2022-11-24T17:28:42.989Z,8.50
2022-11-24T17:31:19.983Z,8.50
2022-11-24T17:33:46.990Z,8.40
2022-11-24T17:36:14.043Z,8.40
2022-11-24T17:38:40.999Z,8.40
2022-11-24T17:41:08.553Z,8.30
2022-11-24T17:43:35.587Z,8.30
2022-11-24T17:46:04.682Z,8.20
2022-11-24T17:48:32.226Z,8.20
2022-11-24T17:51:00.095Z,8.10
2022-11-24T17:53:27.602Z,8.10
2022-11-24T17:55:54.657Z,8.00
2022-11-24T17:58:21.577Z,8.00
2022-11-24T18:00:50.341Z,8.00
2022-11-24T18:03:17.295Z,8.00
2022-11-24T18:05:44.275Z,7.90
2022-11-24T18:08:12.119Z,7.90
2022-11-24T18:10:39.266Z,7.80
2022-11-24T18:13:06.544Z,7.70
2022-11-24T18:15:34.862Z,7.70
2022-11-24T18:18:02.614Z,7.60
2022-11-24T18:20:29.834Z,7.60
2022-11-24T18:23:05.576Z,7.60
2022-11-24T18:25:37.195Z,7.60
2022-11-24T18:28:04.438Z,7.60
2022-11-24T18:30:31.462Z,7.60
2022-11-24T18:32:58.883Z,7.60
2022-11-24T18:35:25.811Z,7.60
2022-11-24T18:37:53.358Z,7.60
2022-11-24T18:40:20.271Z,7.60
2022-11-24T18:42:47.187Z,7.60
2022-11-24T18:45:14.112Z,7.60
2022-11-24T18:47:41.028Z,7.60
2022-11-24T18:50:08.613Z,7.50
2022-11-24T18:52:35.515Z,7.50
2022-11-24T18:55:04.032Z,7.40
2022-11-24T18:57:31.665Z,7.40
2022-11-24T18:59:59.040Z,7.40
2022-11-24T19:02:26.084Z,7.40
2022-11-24T19:04:53.181Z,7.30
2022-11-24T19:07:20.492Z,7.30
2022-11-24T19:09:47.722Z,7.30
2022-11-24T19:12:14.694Z,7.20
2022-11-24T19:14:41.668Z,7.20
2022-11-24T19:17:08.657Z,7.10
2022-11-24T19:19:35.989Z,7.10
2022-11-24T19:22:03.806Z,7.00
2022-11-24T19:24:30.813Z,7.00
2022-11-24T19:26:58.006Z,7.00
2022-11-24T19:29:24.878Z,7.00
2022-11-24T19:31:54.150Z,7.00
2022-11-24T19:34:21.096Z,6.90
2022-11-24T19:36:48.212Z,6.90
2022-11-24T19:39:16.582Z,7.00
2022-11-24T19:41:43.553Z,7.00
2022-11-24T19:44:13.678Z,6.90
2022-11-24T19:46:40.881Z,6.90
2022-11-24T19:49:08.907Z,6.90
2022-11-24T19:51:38.514Z,6.80
2022-11-24T19:54:08.393Z,6.80
2022-11-24T19:56:36.761Z,6.80
2022-11-24T19:59:05.998Z,6.70
2022-11-24T20:01:40.676Z,6.70
2022-11-24T20:04:13.635Z,6.70
2022-11-24T20:06:43.547Z,6.70
2022-11-24T20:09:13.263Z,6.70
2022-11-24T20:11:40.878Z,6.80
2022-11-24T20:14:14.439Z,6.80
2022-11-24T20:16:41.984Z,6.80
2022-11-24T20:19:12.455Z,6.90
2022-11-24T20:21:41.741Z,6.90
2022-11-24T20:24:12.487Z,6.90
2022-11-24T20:26:42.829Z,6.90
2022-11-24T20:29:12.202Z,6.90
2022-11-24T20:31:42.926Z,6.90
2022-11-24T20:34:10.094Z,6.90
2022-11-24T20:36:39.968Z,6.90
2022-11-24T20:39:16.410Z,6.90
2022-11-24T20:41:44.515Z,6.80
2022-11-24T20:44:15.241Z,6.80
2022-11-24T20:46:44.651Z,6.80
2022-11-24T20:49:14.920Z,6.80
2022-11-24T20:51:44.376Z,6.80
2022-11-24T20:54:15.380Z,6.80
2022-11-24T20:56:44.664Z,6.70
2022-11-24T20:59:14.718Z,6.70
2022-11-24T21:01:45.762Z,6.80
2022-11-24T21:04:17.531Z,6.80
2022-11-24T21:06:44.771Z,6.80
2022-11-24T21:09:12.020Z,6.80
2022-11-24T21:11:39.757Z,6.90
2022-11-24T21:14:08.025Z,6.90
2022-11-24T21:16:37.615Z,7.00
2022-11-24T21:19:11.631Z,7.00
2022-11-24T21:21:39.891Z,7.00
2022-11-24T21:24:11.890Z,7.00
2022-11-24T21:26:39.990Z,7.00
2022-11-24T21:29:07.793Z,7.10
2022-11-24T21:31:37.366Z,7.10
2022-11-24T21:34:16.739Z,7.10
2022-11-24T21:36:45.242Z,7.10
2022-11-24T21:39:13.970Z,7.20
2022-11-24T21:41:41.850Z,7.20
2022-11-24T21:44:10.534Z,7.10
2022-11-24T21:46:43.623Z,7.10
2022-11-24T21:49:13.779Z,7.10
2022-11-24T21:51:41.248Z,7.10
2022-11-24T21:54:09.217Z,7.00
2022-11-24T21:56:36.323Z,7.00
2022-11-24T21:59:03.889Z,7.00
2022-11-24T22:01:31.450Z,7.00
2022-11-24T22:03:58.583Z,6.90
2022-11-24T22:06:25.612Z,6.90
2022-11-24T22:08:52.858Z,6.90
2022-11-24T22:11:22.883Z,6.90
2022-11-24T22:13:51.231Z,6.90
2022-11-24T22:16:24.044Z,6.90
2022-11-24T22:18:51.870Z,6.90
2022-11-24T22:21:24.394Z,6.90
2022-11-24T22:23:55.636Z,6.90
2022-11-24T22:26:23.958Z,6.90
2022-11-24T22:28:51.907Z,6.90
2022-11-24T22:31:23.214Z,6.90
2022-11-24T22:33:51.116Z,6.90
2022-11-24T22:36:22.869Z,7.00
2022-11-24T22:39:04.218Z,7.00
2022-11-24T22:41:34.119Z,7.00
2022-11-24T22:44:01.111Z,7.00
2022-11-24T22:46:30.110Z,7.00
2022-11-24T22:48:59.813Z,7.00
2022-11-24T22:51:29.660Z,7.00
2022-11-24T22:53:58.812Z,7.10
2022-11-24T22:56:28.014Z,7.10
2022-11-24T22:58:55.380Z,7.10
2022-11-24T23:01:24.988Z,7.10
2022-11-24T23:03:54.469Z,7.20
2022-11-24T23:06:30.054Z,7.20
2022-11-24T23:08:58.482Z,7.30
2022-11-24T23:11:38.213Z,7.30
2022-11-24T23:14:07.867Z,7.40
2022-11-24T23:16:34.895Z,7.40
2022-11-24T23:19:01.910Z,7.40
2022-11-24T23:21:31.286Z,7.30
2022-11-24T23:24:00.204Z,7.20
2022-11-24T23:26:30.735Z,7.10
2022-11-24T23:28:57.687Z,7.10
2022-11-24T23:31:29.643Z,7.00
2022-11-24T23:33:58.147Z,7.00
2022-11-24T23:36:26.033Z,7.00
2022-11-24T23:38:53.111Z,7.00
2022-11-24T23:41:25.282Z,7.00
2022-11-24T23:43:52.643Z,7.00
2022-11-24T23:46:22.312Z,7.00
2022-11-24T23:48:50.631Z,7.00
2022-11-24T23:51:24.603Z,7.00
2022-11-24T23:53:52.159Z,7.10
2022-11-24T23:56:21.729Z,7.10
2022-11-24T23:58:49.050Z,7.10
